sensor_id;sensor_type;location;lat;lon;timestamp;pressure;altitude;pressure_sealevel;temperature;humidity
19843;BME280;10082;51.038;6.992;2023-04-23T00:00:08;-17616.84;;;-144.33;100.00
19843;BME280;10082;51.038;6.992;2023-04-23T00:02:43;-17616.84;;;-144.33;100.00
19843;BME280;10082;51.038;6.992;2023-04-23T00:05:12;-17616.84;;;-144.33;100.00
19843;BME280;10082;51.038;6.992;2023-04-23T00:07:41;-17616.84;;;-144.33;100.00
19843;BME280;10082;51.038;6.992;2023-04-23T00:10:09;-17616.84;;;-144.33;100.00
19843;BME280;10082;51.038;6.992;2023-04-23T00:12:36;-17616.84;;;-144.33;100.00
19843;BME280;10082;51.038;6.992;2023-04-23T00:15:07;-17616.84;;;-144.33;100.00
19843;BME280;10082;51.038;6.992;2023-04-23T00:17:35;-17616.84;;;-144.33;100.00
19843;BME280;10082;51.038;6.992;2023-04-23T00:20:02;-17616.84;;;-144.33;100.00
19843;BME280;10082;51.038;6.992;2023-04-23T00:22:29;-17616.84;;;-144.33;100.00
19843;BME280;10082;51.038;6.992;2023-04-23T00:24:56;-17616.84;;;-144.33;100.00
19843;BME280;10082;51.038;6.992;2023-04-23T00:27:24;-17616.84;;;-144.33;100.00
19843;BME280;10082;51.038;6.992;2023-04-23T00:29:52;-17616.84;;;-144.33;100.00
19843;BME280;10082;51.038;6.992;2023-04-23T00:32:21;-17616.84;;;-144.33;100.00
19843;BME280;10082;51.038;6.992;2023-04-23T00:34:49;-17616.84;;;-144.33;100.00
19843;BME280;10082;51.038;6.992;2023-04-23T00:37:16;-17616.84;;;-144.33;100.00
19843;BME280;10082;51.038;6.992;2023-04-23T00:39:44;-17616.84;;;-144.33;100.00
19843;BME280;10082;51.038;6.992;2023-04-23T00:42:11;-17616.84;;;-144.33;100.00
19843;BME280;10082;51.038;6.992;2023-04-23T00:44:41;-17616.84;;;-144.33;100.00
19843;BME280;10082;51.038;6.992;2023-04-23T00:47:10;-17616.84;;;-144.33;100.00
19843;BME280;10082;51.038;6.992;2023-04-23T00:49:40;-17616.84;;;-144.33;100.00
19843;BME280;10082;51.038;6.992;2023-04-23T00:52:08;-17616.84;;;-144.33;100.00
19843;BME280;10082;51.038;6.992;2023-04-23T00:54:35;-17616.84;;;-144.33;100.00
19843;BME280;10082;51.038;6.992;2023-04-23T00:57:02;-17616.84;;;-144.33;100.00
19843;BME280;10082;51.038;6.992;2023-04-23T00:59:30;-17616.84;;;-144.33;100.00
19843;BME280;10082;51.038;6.992;2023-04-23T01:01:58;-17616.84;;;-144.33;100.00
19843;BME280;10082;51.038;6.992;2023-04-23T01:04:26;-17616.84;;;-144.33;100.00
19843;BME280;10082;51.038;6.992;2023-04-23T01:06:57;-17616.84;;;-144.33;100.00
19843;BME280;10082;51.038;6.992;2023-04-23T01:09:25;-17616.84;;;-144.33;100.00
19843;BME280;10082;51.038;6.992;2023-04-23T01:11:53;-17616.84;;;-144.33;100.00
19843;BME280;10082;51.038;6.992;2023-04-23T01:14:20;-17616.84;;;-144.33;100.00
19843;BME280;10082;51.038;6.992;2023-04-23T01:16:48;-17616.84;;;-144.33;100.00
19843;BME280;10082;51.038;6.992;2023-04-23T01:19:17;-17616.84;;;-144.33;100.00
19843;BME280;10082;51.038;6.992;2023-04-23T01:21:46;-17616.84;;;-144.33;100.00
19843;BME280;10082;51.038;6.992;2023-04-23T01:24:17;-17616.84;;;-144.33;100.00
19843;BME280;10082;51.038;6.992;2023-04-23T01:26:44;-17616.84;;;-144.33;100.00
19843;BME280;10082;51.038;6.992;2023-04-23T01:29:12;-17616.84;;;-144.33;100.00
19843;BME280;10082;51.038;6.992;2023-04-23T01:31:40;-17616.84;;;-144.33;100.00
19843;BME280;10082;51.038;6.992;2023-04-23T01:34:09;-17616.84;;;-144.33;100.00
19843;BME280;10082;51.038;6.992;2023-04-23T01:36:36;-17616.84;;;-144.33;100.00
19843;BME280;10082;51.038;6.992;2023-04-23T01:39:03;-17616.84;;;-144.33;100.00
19843;BME280;10082;51.038;6.992;2023-04-23T01:41:33;-17616.84;;;-144.33;100.00
19843;BME280;10082;51.038;6.992;2023-04-23T01:44:01;-17616.84;;;-144.33;100.00
19843;BME280;10082;51.038;6.992;2023-04-23T01:46:29;-17616.84;;;-144.33;100.00
19843;BME280;10082;51.038;6.992;2023-04-23T01:48:56;-17616.84;;;-144.33;100.00
19843;BME280;10082;51.038;6.992;2023-04-23T01:51:23;-17616.84;;;-144.33;100.00
19843;BME280;10082;51.038;6.992;2023-04-23T01:53:51;-17616.84;;;-144.33;100.00
19843;BME280;10082;51.038;6.992;2023-04-23T01:56:22;-17616.84;;;-144.33;100.00
19843;BME280;10082;51.038;6.992;2023-04-23T01:58:52;-17616.84;;;-144.33;100.00
19843;BME280;10082;51.038;6.992;2023-04-23T02:01:20;-17616.84;;;-144.33;100.00
19843;BME280;10082;51.038;6.992;2023-04-23T02:03:48;-17616.84;;;-144.33;100.00
19843;BME280;10082;51.038;6.992;2023-04-23T02:06:15;-17616.84;;;-144.33;100.00
19843;BME280;10082;51.038;6.992;2023-04-23T02:08:43;-17616.84;;;-144.33;100.00
19843;BME280;10082;51.038;6.992;2023-04-23T02:11:10;-17616.84;;;-144.33;100.00
19843;BME280;10082;51.038;6.992;2023-04-23T02:13:37;-17616.84;;;-144.33;100.00
19843;BME280;10082;51.038;6.992;2023-04-23T02:16:08;-17616.84;;;-144.33;100.00
19843;BME280;10082;51.038;6.992;2023-04-23T02:18:37;-17616.84;;;-144.33;100.00
19843;BME280;10082;51.038;6.992;2023-04-23T02:21:04;-17616.84;;;-144.33;100.00
19843;BME280;10082;51.038;6.992;2023-04-23T02:23:31;-17616.84;;;-144.33;100.00
19843;BME280;10082;51.038;6.992;2023-04-23T02:25:58;-17616.84;;;-144.33;100.00
19843;BME280;10082;51.038;6.992;2023-04-23T02:28:25;-17616.84;;;-144.33;100.00
19843;BME280;10082;51.038;6.992;2023-04-23T02:30:52;-17616.84;;;-144.33;100.00
19843;BME280;10082;51.038;6.992;2023-04-23T02:33:21;-17616.84;;;-144.33;100.00
19843;BME280;10082;51.038;6.992;2023-04-23T02:35:49;-17616.84;;;-144.33;100.00
19843;BME280;10082;51.038;6.992;2023-04-23T02:38:16;-17616.84;;;-144.33;100.00
19843;BME280;10082;51.038;6.992;2023-04-23T02:40:43;-17616.84;;;-144.33;100.00
19843;BME280;10082;51.038;6.992;2023-04-23T02:43:10;-17616.84;;;-144.33;100.00
19843;BME280;10082;51.038;6.992;2023-04-23T02:45:42;-17616.84;;;-144.33;100.00
19843;BME280;10082;51.038;6.992;2023-04-23T02:48:09;-17616.84;;;-144.33;100.00
19843;BME280;10082;51.038;6.992;2023-04-23T02:50:38;-17616.84;;;-144.33;100.00
19843;BME280;10082;51.038;6.992;2023-04-23T02:53:06;-17616.84;;;-144.33;100.00
19843;BME280;10082;51.038;6.992;2023-04-23T02:55:33;-17616.84;;;-144.33;100.00
19843;BME280;10082;51.038;6.992;2023-04-23T02:58:01;-17616.84;;;-144.33;100.00
19843;BME280;10082;51.038;6.992;2023-04-23T03:00:29;-17616.84;;;-144.33;100.00
19843;BME280;10082;51.038;6.992;2023-04-23T03:02:57;-17616.84;;;-144.33;100.00
19843;BME280;10082;51.038;6.992;2023-04-23T03:05:25;-17616.84;;;-144.33;100.00
19843;BME280;10082;51.038;6.992;2023-04-23T03:07:54;-17616.84;;;-144.33;100.00
19843;BME280;10082;51.038;6.992;2023-04-23T03:10:22;-17616.84;;;-144.33;100.00
19843;BME280;10082;51.038;6.992;2023-04-23T03:12:48;-17615.41;;;-144.33;100.00
19843;BME280;10082;51.038;6.992;2023-04-23T03:15:16;-17615.41;;;-144.33;100.00
19843;BME280;10082;51.038;6.992;2023-04-23T03:17:43;-17366.06;;;-144.33;100.00
19843;BME280;10082;51.038;6.992;2023-04-23T03:20:10;-16867.34;;;-144.33;100.00
19843;BME280;10082;51.038;6.992;2023-04-23T03:22:39;-16368.56;;;-144.33;100.00
19843;BME280;10082;51.038;6.992;2023-04-23T03:25:08;-15869.72;;;-144.33;100.00
19843;BME280;10082;51.038;6.992;2023-04-23T03:27:35;-15370.81;;;-144.33;100.00
19843;BME280;10082;51.038;6.992;2023-04-23T03:30:03;-14834.78;;;-144.33;100.00
19843;BME280;10082;51.038;6.992;2023-04-23T03:32:32;-15370.81;;;-144.33;100.00
19843;BME280;10082;51.038;6.992;2023-04-23T03:34:59;-15620.25;;;-144.33;100.00
19843;BME280;10082;51.038;6.992;2023-04-23T03:37:26;-15869.72;;;-144.33;100.00
19843;BME280;10082;51.038;6.992;2023-04-23T03:39:53;-15370.81;;;-144.33;100.00
19843;BME280;10082;51.038;6.992;2023-04-23T03:42:22;-14871.81;;;-144.33;100.00
19843;BME280;10082;51.038;6.992;2023-04-23T03:44:52;-14871.81;;;-144.33;100.00
19843;BME280;10082;51.038;6.992;2023-04-23T03:47:19;-14871.81;;;-144.33;100.00
19843;BME280;10082;51.038;6.992;2023-04-23T03:49:48;-14871.81;;;-144.33;100.00
19843;BME280;10082;51.038;6.992;2023-04-23T03:52:15;-14372.78;;;-144.33;100.00
19843;BME280;10082;51.038;6.992;2023-04-23T03:54:43;-14372.78;;;-144.33;100.00
19843;BME280;10082;51.038;6.992;2023-04-23T03:57:17;-14622.31;;;-144.33;100.00
19843;BME280;10082;51.038;6.992;2023-04-23T03:59:55;-14101.78;;;-144.33;100.00
19843;BME280;10082;51.038;6.992;2023-04-23T04:02:24;-13374.50;;;-144.33;100.00
19843;BME280;10082;51.038;6.992;2023-04-23T04:04:52;-13341.34;;;-144.33;100.00
19843;BME280;10082;51.038;6.992;2023-04-23T04:07:23;-13095.63;;;-144.33;100.00
19843;BME280;10082;51.038;6.992;2023-04-23T04:09:54;-12625.63;;;-144.33;100.00
19843;BME280;10082;51.038;6.992;2023-04-23T04:12:24;-12553.44;;;-144.33;100.00
19843;BME280;10082;51.038;6.992;2023-04-23T04:14:51;-12003.38;;;-144.33;100.00
19843;BME280;10082;51.038;6.992;2023-04-23T04:17:20;-11519.59;;;-144.33;100.00
19843;BME280;10082;51.038;6.992;2023-04-23T04:19:48;-11107.91;;;-144.33;100.00
19843;BME280;10082;51.038;6.992;2023-04-23T04:22:15;-10971.31;;;-144.33;100.00
19843;BME280;10082;51.038;6.992;2023-04-23T04:24:42;-11055.22;;;-144.33;100.00
19843;BME280;10082;51.038;6.992;2023-04-23T04:27:12;-10417.13;;;-144.33;100.00
19843;BME280;10082;51.038;6.992;2023-04-23T04:29:40;-10532.25;;;-144.33;100.00
19843;BME280;10082;51.038;6.992;2023-04-23T04:32:07;-9874.56;;;-144.33;100.00
19843;BME280;10082;51.038;6.992;2023-04-23T04:34:37;-10003.38;;;-144.33;100.00
19843;BME280;10082;51.038;6.992;2023-04-23T04:37:04;-9417.81;;;-144.33;100.00
19843;BME280;10082;51.038;6.992;2023-04-23T04:39:32;-9499.81;;;-144.33;100.00
19843;BME280;10082;51.038;6.992;2023-04-23T04:41:59;-9419.78;;;-144.33;100.00
19843;BME280;10082;51.038;6.992;2023-04-23T04:44:28;-9458.81;;;-144.33;100.00
19843;BME280;10082;51.038;6.992;2023-04-23T04:46:55;-8937.59;;;-144.33;100.00
19843;BME280;10082;51.038;6.992;2023-04-23T04:49:22;-8990.28;;;-144.33;100.00
19843;BME280;10082;51.038;6.992;2023-04-23T04:51:51;-8871.22;;;-144.33;100.00
19843;BME280;10082;51.038;6.992;2023-04-23T04:54:18;-8961.00;;;-144.33;100.00
19843;BME280;10082;51.038;6.992;2023-04-23T04:56:46;-9411.97;;;-144.33;100.00
19843;BME280;10082;51.038;6.992;2023-04-23T04:59:17;-9134.75;;;-144.33;100.00
19843;BME280;10082;51.038;6.992;2023-04-23T05:01:45;-9017.63;;;-144.33;100.00
19843;BME280;10082;51.038;6.992;2023-04-23T05:04:12;-9538.84;;;-144.33;100.00
19843;BME280;10082;51.038;6.992;2023-04-23T05:06:39;-9870.66;;;-144.33;100.00
19843;BME280;10082;51.038;6.992;2023-04-23T05:09:08;-10054.13;;;-144.33;100.00
19843;BME280;10082;51.038;6.992;2023-04-23T05:11:35;-10261.00;;;-144.33;100.00
19843;BME280;10082;51.038;6.992;2023-04-23T05:14:02;-10497.13;;;-144.33;100.00
19843;BME280;10082;51.038;6.992;2023-04-23T05:16:30;-9991.66;;;-144.33;100.00
19843;BME280;10082;51.038;6.992;2023-04-23T05:18:57;-10218.06;;;-144.33;100.00
19843;BME280;10082;51.038;6.992;2023-04-23T05:21:24;-10405.41;;;-144.33;100.00
19843;BME280;10082;51.038;6.992;2023-04-23T05:23:53;-10768.38;;;-144.33;100.00
19843;BME280;10082;51.038;6.992;2023-04-23T05:26:22;-10979.13;;;-144.33;100.00
19843;BME280;10082;51.038;6.992;2023-04-23T05:28:49;-11511.78;;;-144.33;100.00
19843;BME280;10082;51.038;6.992;2023-04-23T05:31:17;-11870.75;;;-144.33;100.00
19843;BME280;10082;51.038;6.992;2023-04-23T05:33:45;-12112.63;;;-144.33;100.00
19843;BME280;10082;51.038;6.992;2023-04-23T05:36:12;-12375.97;;;-144.33;100.00
19843;BME280;10082;51.038;6.992;2023-04-23T05:38:39;-12625.63;;;-144.33;100.00
19843;BME280;10082;51.038;6.992;2023-04-23T05:41:15;-13124.88;;;-144.33;100.00
19843;BME280;10082;51.038;6.992;2023-04-23T05:43:44;-13873.69;;;-144.33;100.00
19843;BME280;10082;51.038;6.992;2023-04-23T05:46:11;-14123.22;;;-144.33;100.00
19843;BME280;10082;51.038;6.992;2023-04-23T05:48:38;-14123.22;;;-144.33;100.00
19843;BME280;10082;51.038;6.992;2023-04-23T05:51:05;-14372.78;;;-144.33;100.00
19843;BME280;10082;51.038;6.992;2023-04-23T05:53:32;-14622.31;;;-144.33;100.00
19843;BME280;10082;51.038;6.992;2023-04-23T05:56:00;-14622.31;;;-144.33;100.00
19843;BME280;10082;51.038;6.992;2023-04-23T05:58:27;-15121.31;;;-144.33;100.00
19843;BME280;10082;51.038;6.992;2023-04-23T06:00:56;-15121.31;;;-144.33;100.00
19843;BME280;10082;51.038;6.992;2023-04-23T06:03:23;-15370.81;;;-144.33;100.00
19843;BME280;10082;51.038;6.992;2023-04-23T06:05:51;-15869.72;;;-144.33;100.00
19843;BME280;10082;51.038;6.992;2023-04-23T06:08:18;-16368.56;;;-144.33;100.00
19843;BME280;10082;51.038;6.992;2023-04-23T06:10:45;-16368.56;;;-144.33;100.00
19843;BME280;10082;51.038;6.992;2023-04-23T06:13:12;-16617.97;;;-144.33;100.00
19843;BME280;10082;51.038;6.992;2023-04-23T06:15:39;-16867.34;;;-144.33;100.00
19843;BME280;10082;51.038;6.992;2023-04-23T06:18:08;-17116.72;;;-144.33;100.00
19843;BME280;10082;51.038;6.992;2023-04-23T06:20:35;-17366.06;;;-144.33;100.00
19843;BME280;10082;51.038;6.992;2023-04-23T06:23:02;-17615.41;;;-144.33;100.00
19843;BME280;10082;51.038;6.992;2023-04-23T06:25:31;-17615.41;;;-144.33;100.00
19843;BME280;10082;51.038;6.992;2023-04-23T06:27:59;-17615.41;;;-144.33;100.00
19843;BME280;10082;51.038;6.992;2023-04-23T06:30:29;-17616.84;;;-144.33;100.00
19843;BME280;10082;51.038;6.992;2023-04-23T06:32:57;-17616.84;;;-144.33;100.00
19843;BME280;10082;51.038;6.992;2023-04-23T06:35:26;-17616.84;;;-144.33;100.00
19843;BME280;10082;51.038;6.992;2023-04-23T06:37:54;-17616.84;;;-144.33;100.00
19843;BME280;10082;51.038;6.992;2023-04-23T06:40:21;-17616.84;;;-144.33;100.00
19843;BME280;10082;51.038;6.992;2023-04-23T06:42:48;-17616.84;;;-144.33;100.00
19843;BME280;10082;51.038;6.992;2023-04-23T06:45:31;-17616.84;;;-144.33;100.00
19843;BME280;10082;51.038;6.992;2023-04-23T06:47:59;-17616.84;;;-144.33;100.00
19843;BME280;10082;51.038;6.992;2023-04-23T06:50:28;-17616.84;;;-144.33;100.00
19843;BME280;10082;51.038;6.992;2023-04-23T06:52:59;-17616.84;;;-144.33;100.00
19843;BME280;10082;51.038;6.992;2023-04-23T06:55:27;-17616.84;;;-144.33;100.00
19843;BME280;10082;51.038;6.992;2023-04-23T06:57:56;-17616.84;;;-144.33;100.00
19843;BME280;10082;51.038;6.992;2023-04-23T07:00:23;-17616.84;;;-144.33;100.00
19843;BME280;10082;51.038;6.992;2023-04-23T07:02:53;-17616.84;;;-144.33;100.00
19843;BME280;10082;51.038;6.992;2023-04-23T07:05:20;-17616.84;;;-144.33;100.00
19843;BME280;10082;51.038;6.992;2023-04-23T07:07:49;-17616.84;;;-144.33;100.00
19843;BME280;10082;51.038;6.992;2023-04-23T07:10:17;-17616.84;;;-144.33;100.00
19843;BME280;10082;51.038;6.992;2023-04-23T07:12:45;-17616.84;;;-144.33;100.00
19843;BME280;10082;51.038;6.992;2023-04-23T07:15:12;-17616.84;;;-144.33;100.00
19843;BME280;10082;51.038;6.992;2023-04-23T07:17:39;-17616.84;;;-144.33;100.00
19843;BME280;10082;51.038;6.992;2023-04-23T07:20:07;-17616.84;;;-144.33;100.00
19843;BME280;10082;51.038;6.992;2023-04-23T07:22:34;-17616.84;;;-144.33;100.00
19843;BME280;10082;51.038;6.992;2023-04-23T07:25:03;-17616.84;;;-144.33;100.00
19843;BME280;10082;51.038;6.992;2023-04-23T07:27:30;-17616.84;;;-144.33;100.00
19843;BME280;10082;51.038;6.992;2023-04-23T07:29:57;-17616.84;;;-144.33;100.00
19843;BME280;10082;51.038;6.992;2023-04-23T07:32:26;-17616.84;;;-144.33;100.00
19843;BME280;10082;51.038;6.992;2023-04-23T07:34:54;-17616.84;;;-144.33;100.00
19843;BME280;10082;51.038;6.992;2023-04-23T07:37:22;-17616.84;;;-144.33;100.00
19843;BME280;10082;51.038;6.992;2023-04-23T07:39:49;-17116.72;;;-144.33;100.00
19843;BME280;10082;51.038;6.992;2023-04-23T07:42:19;-14372.78;;;-144.33;100.00
19843;BME280;10082;51.038;6.992;2023-04-23T07:44:46;-11127.41;;;-144.33;100.00
19843;BME280;10082;51.038;6.992;2023-04-23T07:47:13;-9103.53;;;-144.33;100.00
19843;BME280;10082;51.038;6.992;2023-04-23T07:49:41;-2610.88;;;-144.33;100.00
19843;BME280;10082;51.038;6.992;2023-04-23T07:52:08;3312.97;;;-144.33;100.00
19843;BME280;10082;51.038;6.992;2023-04-23T07:54:35;8496.69;;;-144.33;100.00
19843;BME280;10082;51.038;6.992;2023-04-23T07:57:02;12888.19;;;-144.33;100.00
19843;BME280;10082;51.038;6.992;2023-04-23T07:59:31;13049.19;;;-144.33;100.00
19843;BME280;10082;51.038;6.992;2023-04-23T08:01:58;16691.13;;;-144.33;100.00
19843;BME280;10082;51.038;6.992;2023-04-23T08:04:25;26419.63;;;-144.33;100.00
19843;BME280;10082;51.038;6.992;2023-04-23T08:06:52;41647.28;;;-144.33;100.00
19843;BME280;10082;51.038;6.992;2023-04-23T08:09:19;76104.78;;;-144.33;100.00
19843;BME280;10082;51.038;6.992;2023-04-23T08:11:47;100448.72;;;-144.33;100.00
19843;BME280;10082;51.038;6.992;2023-04-23T08:17:42;108411.00;;;-144.33;100.00
19843;BME280;10082;51.038;6.992;2023-04-23T08:20:09;109336.22;;;-144.33;100.00
19843;BME280;10082;51.038;6.992;2023-04-23T08:22:37;112171.53;;;-144.33;100.00
19843;BME280;10082;51.038;6.992;2023-04-23T08:25:05;112171.53;;;-144.33;100.00
19843;BME280;10082;51.038;6.992;2023-04-23T08:27:32;112171.53;;;-144.33;100.00
19843;BME280;10082;51.038;6.992;2023-04-23T08:29:59;112171.53;;;-144.33;100.00
19843;BME280;10082;51.038;6.992;2023-04-23T08:32:28;112171.53;;;-144.33;100.00
19843;BME280;10082;51.038;6.992;2023-04-23T08:34:57;112171.53;;;-144.33;100.00
19843;BME280;10082;51.038;6.992;2023-04-23T08:37:24;112171.53;;;-144.33;100.00
19843;BME280;10082;51.038;6.992;2023-04-23T08:39:51;112171.53;;;-144.33;100.00
19843;BME280;10082;51.038;6.992;2023-04-23T08:42:32;112171.53;;;-144.33;100.00
19843;BME280;10082;51.038;6.992;2023-04-23T08:45:01;112171.53;;;-144.33;100.00
19843;BME280;10082;51.038;6.992;2023-04-23T08:47:29;112171.53;;;-144.33;100.00
19843;BME280;10082;51.038;6.992;2023-04-23T08:49:59;112171.53;;;-144.33;96.19
19843;BME280;10082;51.038;6.992;2023-04-23T08:52:32;112171.53;;;-144.33;100.00
19843;BME280;10082;51.038;6.992;2023-04-23T08:55:01;112171.53;;;-144.33;100.00
19843;BME280;10082;51.038;6.992;2023-04-23T08:57:30;112171.53;;;-144.33;100.00
19843;BME280;10082;51.038;6.992;2023-04-23T08:59:59;112171.53;;;-144.33;95.91
19843;BME280;10082;51.038;6.992;2023-04-23T09:02:31;112171.53;;;-144.33;92.30
19843;BME280;10082;51.038;6.992;2023-04-23T09:05:01;112171.53;;;-144.33;95.19
19843;BME280;10082;51.038;6.992;2023-04-23T09:07:29;112171.53;;;-144.33;89.76
19843;BME280;10082;51.038;6.992;2023-04-23T09:09:56;112171.53;;;-144.33;88.36
19843;BME280;10082;51.038;6.992;2023-04-23T09:12:23;112171.53;;;-144.33;91.20
19843;BME280;10082;51.038;6.992;2023-04-23T09:14:50;112171.53;;;-144.33;90.86
19843;BME280;10082;51.038;6.992;2023-04-23T09:17:18;112171.53;;;-144.33;87.88
19843;BME280;10082;51.038;6.992;2023-04-23T09:19:46;112171.53;;;-144.33;92.66
19843;BME280;10082;51.038;6.992;2023-04-23T09:22:36;112171.53;;;-144.33;90.02
19843;BME280;10082;51.038;6.992;2023-04-23T09:25:10;112171.53;;;-144.33;88.38
19843;BME280;10082;51.038;6.992;2023-04-23T09:27:37;112171.53;;;-144.33;84.10
19843;BME280;10082;51.038;6.992;2023-04-23T09:30:07;112171.53;;;-144.33;80.73
19843;BME280;10082;51.038;6.992;2023-04-23T09:32:37;112171.53;;;-144.33;74.69
19843;BME280;10082;51.038;6.992;2023-04-23T09:35:05;112171.53;;;-144.33;71.40
19843;BME280;10082;51.038;6.992;2023-04-23T09:37:34;112171.53;;;-144.33;75.85
19843;BME280;10082;51.038;6.992;2023-04-23T09:40:02;112171.53;;;-144.33;76.22
19843;BME280;10082;51.038;6.992;2023-04-23T09:42:31;112171.53;;;-144.33;77.83
19843;BME280;10082;51.038;6.992;2023-04-23T09:45:01;112171.53;;;-144.33;81.09
19843;BME280;10082;51.038;6.992;2023-04-23T09:47:31;112171.53;;;-144.33;80.30
19843;BME280;10082;51.038;6.992;2023-04-23T09:49:58;112171.53;;;-144.33;82.68
19843;BME280;10082;51.038;6.992;2023-04-23T09:52:26;112171.53;;;-144.33;86.14
19843;BME280;10082;51.038;6.992;2023-04-23T09:54:57;112171.53;;;-144.33;86.25
19843;BME280;10082;51.038;6.992;2023-04-23T09:57:24;112171.53;;;-144.33;87.03
19843;BME280;10082;51.038;6.992;2023-04-23T09:59:51;112171.53;;;-144.33;85.26
19843;BME280;10082;51.038;6.992;2023-04-23T10:02:19;112171.53;;;-144.33;82.25
19843;BME280;10082;51.038;6.992;2023-04-23T10:04:49;112171.53;;;-144.33;77.10
19843;BME280;10082;51.038;6.992;2023-04-23T10:07:17;112171.53;;;-144.33;73.91
19843;BME280;10082;51.038;6.992;2023-04-23T10:12:33;112171.53;;;-144.33;73.42
19843;BME280;10082;51.038;6.992;2023-04-23T10:15:03;112171.53;;;-144.33;74.48
19843;BME280;10082;51.038;6.992;2023-04-23T10:17:30;112171.53;;;-144.33;75.66
19843;BME280;10082;51.038;6.992;2023-04-23T10:19:58;112171.53;;;-144.33;73.31
19843;BME280;10082;51.038;6.992;2023-04-23T10:22:28;112171.53;;;-144.33;74.67
19843;BME280;10082;51.038;6.992;2023-04-23T10:24:56;112171.53;;;-144.33;74.30
19843;BME280;10082;51.038;6.992;2023-04-23T10:27:26;112171.53;;;-144.33;75.52
19843;BME280;10082;51.038;6.992;2023-04-23T10:29:56;112171.53;;;-144.33;77.53
19843;BME280;10082;51.038;6.992;2023-04-23T10:32:24;112171.53;;;-144.33;77.89
19843;BME280;10082;51.038;6.992;2023-04-23T10:34:52;112171.53;;;-144.33;73.04
19843;BME280;10082;51.038;6.992;2023-04-23T10:37:19;112171.53;;;-144.33;71.04
19843;BME280;10082;51.038;6.992;2023-04-23T10:39:53;112171.53;;;-144.33;69.73
19843;BME280;10082;51.038;6.992;2023-04-23T10:42:21;112171.53;;;-144.33;68.71
19843;BME280;10082;51.038;6.992;2023-04-23T10:44:56;112171.53;;;-144.33;68.63
19843;BME280;10082;51.038;6.992;2023-04-23T10:47:24;112171.53;;;-144.33;66.89
19843;BME280;10082;51.038;6.992;2023-04-23T10:49:51;112171.53;;;-144.33;64.28
19843;BME280;10082;51.038;6.992;2023-04-23T10:52:18;112171.53;;;-144.33;64.39
19843;BME280;10082;51.038;6.992;2023-04-23T10:54:48;112171.53;;;-144.33;60.27
19843;BME280;10082;51.038;6.992;2023-04-23T10:57:15;112171.53;;;-144.33;61.65
19843;BME280;10082;51.038;6.992;2023-04-23T10:59:50;112171.53;;;-144.33;64.63
19843;BME280;10082;51.038;6.992;2023-04-23T11:02:22;112171.53;;;-144.33;64.35
19843;BME280;10082;51.038;6.992;2023-04-23T11:04:54;112171.53;;;-144.33;63.73
19843;BME280;10082;51.038;6.992;2023-04-23T11:07:25;112171.53;;;-144.33;65.07
19843;BME280;10082;51.038;6.992;2023-04-23T11:09:58;112171.53;;;-144.33;62.24
19843;BME280;10082;51.038;6.992;2023-04-23T11:12:31;112171.53;;;-144.33;59.42
19843;BME280;10082;51.038;6.992;2023-04-23T11:15:09;112171.53;;;-144.33;56.87
19843;BME280;10082;51.038;6.992;2023-04-23T11:18:00;112171.53;;;-144.33;56.33
19843;BME280;10082;51.038;6.992;2023-04-23T11:20:27;112171.53;;;-144.33;52.28
19843;BME280;10082;51.038;6.992;2023-04-23T11:22:55;112171.53;;;-144.33;51.32
19843;BME280;10082;51.038;6.992;2023-04-23T11:25:23;112171.53;;;-144.33;50.64
19843;BME280;10082;51.038;6.992;2023-04-23T11:27:52;112171.53;;;-144.33;48.49
19843;BME280;10082;51.038;6.992;2023-04-23T11:30:21;112171.53;;;-144.33;49.98
19843;BME280;10082;51.038;6.992;2023-04-23T11:32:49;112171.53;;;-144.33;50.02
19843;BME280;10082;51.038;6.992;2023-04-23T11:35:20;112171.53;;;-144.33;49.29
19843;BME280;10082;51.038;6.992;2023-04-23T11:37:48;112171.53;;;-144.33;49.10
19843;BME280;10082;51.038;6.992;2023-04-23T11:40:17;112171.53;;;-144.33;47.91
19843;BME280;10082;51.038;6.992;2023-04-23T11:42:46;112171.53;;;-144.33;48.76
19843;BME280;10082;51.038;6.992;2023-04-23T11:45:17;112171.53;;;-144.33;47.89
19843;BME280;10082;51.038;6.992;2023-04-23T11:47:46;112171.53;;;-144.33;48.43
19843;BME280;10082;51.038;6.992;2023-04-23T11:50:19;112171.53;;;-144.33;49.16
19843;BME280;10082;51.038;6.992;2023-04-23T11:52:47;112171.53;;;-144.33;46.75
19843;BME280;10082;51.038;6.992;2023-04-23T11:55:14;112171.53;;;-144.33;44.43
19843;BME280;10082;51.038;6.992;2023-04-23T11:57:42;112171.53;;;-144.33;42.39
19843;BME280;10082;51.038;6.992;2023-04-23T12:00:12;112171.53;;;-144.33;42.80
19843;BME280;10082;51.038;6.992;2023-04-23T12:02:49;112171.53;;;-144.33;44.22
19843;BME280;10082;51.038;6.992;2023-04-23T12:05:21;112171.53;;;-144.33;46.66
19843;BME280;10082;51.038;6.992;2023-04-23T12:07:49;112171.53;;;-144.33;50.13
19843;BME280;10082;51.038;6.992;2023-04-23T12:10:18;112171.53;;;-144.33;47.57
19843;BME280;10082;51.038;6.992;2023-04-23T12:12:49;112171.53;;;-144.33;46.97
19843;BME280;10082;51.038;6.992;2023-04-23T12:15:16;112171.53;;;-144.33;46.10
19843;BME280;10082;51.038;6.992;2023-04-23T12:17:49;112171.53;;;-144.33;44.14
19843;BME280;10082;51.038;6.992;2023-04-23T12:20:20;112171.53;;;-144.33;44.37
19843;BME280;10082;51.038;6.992;2023-04-23T12:22:47;112171.53;;;-144.33;41.40
19843;BME280;10082;51.038;6.992;2023-04-23T12:25:14;112171.53;;;-144.33;39.71
19843;BME280;10082;51.038;6.992;2023-04-23T12:27:43;112171.53;;;-144.33;41.45
19843;BME280;10082;51.038;6.992;2023-04-23T12:30:11;112171.53;;;-144.33;42.68
19843;BME280;10082;51.038;6.992;2023-04-23T12:32:40;112171.53;;;-144.33;42.17
19843;BME280;10082;51.038;6.992;2023-04-23T12:35:07;112171.53;;;-144.33;42.35